My Meet Scores
Taylor Kim, Wilmette Gymnastics - MyMeetScores.com
Top100 | Top Teams | Upcoming Meets | Completed Meets | Latest | Add Scores | Help| Support | Bookmark and Share

Taylor Kim, Wilmette Gymnastics
Personal Bests
LevelVault BarsBeamFloorAA
49.3509.225 8.8508.90035.675
59.4758.925 9.1009.07535.950
69.2759.475 9.5509.40037.700
Meet Scores
Date Meet Team Session Level Division Vault Bars Beam Floor AA
2021-05-14 Level 6 and Xcel Silver Regionals Wilmette Gymnastics 4A 6 Sr A2 0.000 2 9.100 9T 9.025 7T 9.175 16T 36.750 7
2021-04-15 Illinois level 6 & Xcel Silver State Champion Wilmette Gymnastics 10 6 Sr D 9.275 2 9.475 6T 9.550 1 9.400 15T 37.700 2
2021-02-27 2021 Energym Spring Classic Wilmette Gymnastics 6 6 Sr 9.150 2 9.050 3T 8.750 7 9.000 5 35.950 3
2021-02-19 BIG Classic 2021 Wilmette Gymnastics VIR 6 *** 9.050 25T 9.250 11 9.400 8T 8.725 47 36.425 9
2020-02-21 Kinetic Classic Wilmette Gymnastics 03 5 Older 9.475 9T 8.750 36T 9.100 42 8.625 48 35.950 35
2020-01-24 Uga Invitational Wilmette Gymnastics B1 5 Jr C 9.250 1 8.225 6T 7.225 14 9.075 4 33.775 8
2019-12-20 2019 Women's Hawaiian Pineapple Classic Wilmette Gymnastics 4B 5 Ages 12+ 9.050 2T 8.850 3 7.525 10 8.375 6 33.800 4
2019-12-06 Ultimate Wish Classic Wilmette Gymnastics 6B 5 SR B 9.200 2 8.925 2 8.050 13 8.575 11 34.750 3
2019-03-22 Illinois Gymnastics State Championships Wilmette Gymnastics 11 4 Sr C 9.250 5T 9.225 9 8.100 24 8.300 26 34.875 22
2019-02-15 Big ClassicBIG CLASSIC Wilmette Gymnastics 5A 4 Child E 8.825 4 8.750 6 8.250 11 8.000 8 33.825 6
2019-02-01 St. Valentines Classic Wilmette Gymnastics 4A 4 11 yrs. 9.225 1 8.800 8 8.750 4 8.900 9 35.675 4T
2019-01-25 UGA Invitational Wilmette Gymnastics B06 4 Jr B 9.150 1 9.125 3 8.850 8 8.400 9 35.525 4
2018-12-14 Hawaiian Pineapple Classic Wilmette Gymnastics 9B 4 Ages11+ 9.150 2 8.675 8 8.300 10 7.650 9 33.775 6
2018-11-30 Ultimate Wish Classic Wilmette Gymnastics 3 4 SR B 9.225 3 8.950 8T 8.450 6T 8.600 5T 35.225 4
2018-11-17 Paul Hamm Thanksgiving Class WOMENS Wilmette Gymnastics 6 4 Older 9.200 3 8.575 17 8.100 22T 8.450 16 34.325 14
2018-11-03 Phyllis Matras Invite Wilmette Gymnastics All 4 All 9.350 2T 8.525 32T 8.600 19T 8.475 39T 34.950 21
2018-01-26 2018 UGA Classic Wilmette Gymnastics B5 4 Junior 8.350 6 8.050 8T 8.375 12 7.750 13 32.525 10
2017-12-14 2017 Women's Hawaiian Pineapple Classic Wilmette Gymnastics 6A 4 Age10 7.400 20T 7.050 19 6.850 23 6.375 21 27.675 21
2017-11-16 Paul Hamm Thanksgiving Classic - Women Wilmette Gymnastics 6 4 Middle 8.350 10T 6.800 23 6.750 24 6.850 24 28.750 23
2017-11-04 Phyllis Matras Invite Wilmette Gymnastics 4 Sr A 8.500 6 7.500 10 7.400 10T 6.650 11 30.050 11
Get your scores on
a t-shirt, pin, or hoodie